x

Northern Hawaii Two - 252nm Ne Of Honolulu, Hi (51100) Weather Station

7:50pm - Sun 27th Jul 2014 All times are HST. -10 hours from GMT.

  • Wind
    13mph, 16mph gusts
  • Sea Temp 78°f
  • Air Temp 78°f
  • Sea Pressure 1018mb
  • Northern Hawaii Two - 252nm Ne Of Honolulu, Hi
  • Northern Hawaii Two - 252nm Ne Of Honolulu, Hi

More Historic Weather Station data

Upgrade to MSW Pro to gain access to the past 30 days of data for over 8000 Wavebouys and Weather Stations around the globe.

Join Pro

Comparision Forecast

View Surf forecast
   
Sun 07/27 7:50pm  -   -   -  13 16 mph 1018mb 78f 78f
6:50pm  -   -   -  11 16 mph 1017.7mb 78f 78f
5:50pm  -   -   -  11 13 mph 1017mb 78f 78f
4:50pm  -   -   -  11 13 mph 1016.7mb 78f 78f
2:50pm  -   -   -  11 16 mph 1016.9mb 78f 78f
11:50am  -   -   -  9 11 mph 1017.9mb 78f 77f
10:50am  -   -   -  7 9 mph 1018.2mb 78f 77f
8:50am  -   -   -  13
mph
- - 76f
7:50am  -   -   -  13 16 mph 1017.1mb 78f 76f
6:50am  -   -   -  13 16 mph 1016.8mb 77f 77f
5:50am  -   -   -  11
mph
- - -
4:50am  -   -   -  11 13 mph 1015.3mb 77f 77f
2:50am  -   -   -  11 13 mph 1015.7mb 77f 77f
12:50am 5ft 8s 6s 11 13 mph 1016.4mb 78f 77f
Sat 07/26 11:50pm  -   -   -  13 16 mph 1016.6mb 78f 77f
10:50pm  -   -   -  13
mph
- - -
9:50pm  -   -   -  13 18 mph 1017.2mb 78f 77f
7:50pm  -   -   -  13 16 mph 1016.6mb 78f 78f
6:50pm  -   -   -  13 16 mph 1016.1mb 78f 78f
5:50pm  -   -   -  13 16 mph 1015.7mb 78f 78f
4:50pm  -   -   -  13 16 mph 1015.3mb 78f 78f
3:50pm  -   -   -  13 18 mph 1015.2mb 78f 78f
2:50pm 5.5ft 8s 6s 16 18 mph 1015.5mb 78f 78f
1:50pm 5.5ft 7s 6s 16 18 mph 1015.6mb 78f 78f
12:50pm  -   -   -  16
mph
1016mb - 78f
10:50am  -   -   -  16 18 mph 1016.8mb 78f 78f
9:50am  -   -   -  16 18 mph 1017mb 77f 78f
8:50am  -   -   -  16 18 mph - 77f -
7:50am  -   -   -  18 20 mph 1016.3mb 77f 77f
6:50am  -   -   -  16 18 mph 1016mb 77f 77f
5:50am  -   -   -  11 16 mph 1015.6mb 77f 76f
2:50am  -   -   -  16 18 mph 1015.4mb 77f 77f
12:50am  -   -   -  13 16 mph 1016.5mb 77f 77f
Fri 07/25 11:50pm  -   -   -  13 16 mph 1016.8mb 77f 77f
10:50pm  -   -   -  16 18 mph 1017mb 77f 77f
9:50pm  -   -   -  16 20 mph 1016.9mb 78f 78f
8:50pm  -   -   -  16 18 mph 1016.7mb 78f 77f
6:50pm  -   -   -  16 18 mph 1015.7mb 78f 78f
5:50pm  -   -   -  13 16 mph 1015.4mb 78f 78f
4:50pm  -   -   -  11 13 mph 1015.3mb 78f 77f
3:50pm  -   -   -  13 16 mph 1015.5mb 78f 78f
2:50pm  -   -   -  11
mph
1015.8mb - 78f
1:50pm  -   -   -  13 16 mph 1016.5mb 78f 78f
12:50pm  -   -   -  11 13 mph 1017mb 78f 77f
11:50am  -   -   -  13 16 mph 1017.3mb 78f 77f
10:50am 4.5ft 8s 6s 13 16 mph 1017.4mb 77f 77f
9:50am  -   -   -  13
mph
1017.6mb 77f 77f
8:50am 4.5ft 8s 6s  -  mph - - -
7:50am  -   -   -  13 16 mph 1017.5mb 77f 76f
6:50am  -   -   -  16 20 mph 1017.1mb 77f 76f
5:50am  -   -   -  16 18 mph 1016.7mb 77f 76f
4:50am  -   -   -  13 16 mph 1016.4mb 77f 76f
2:50am  -   -   -  13
mph
1016.6mb - 76f
12:50am  -   -   -  16 18 mph 1017.5mb 77f 76f
Thu 07/24 11:50pm  -   -   -  13
mph
- - 77f
10:50pm  -   -   -  11
mph
1018.5mb 77f 77f
9:50pm  -   -   -  11 13 mph 1018.6mb 77f 77f
8:50pm 4.5ft 9s 6s 13 16 mph 1018.4mb 77f 77f
7:50pm  -   -   -  13 16 mph 1018mb 78f 77f
6:50pm  -   -   -  13 16 mph 1017.4mb 78f 77f
5:50pm  -   -   -  13 16 mph 1016.9mb 78f 77f
4:50pm  -   -   -  13 16 mph 1016.9mb 78f 77f
3:50pm  -   -   -  7 9 mph 1017.2mb 78f 74f
2:50pm  -   -   -  11 13 mph 1017.5mb 78f 76f
12:50pm  -   -   -  13 16 mph 1018.1mb 78f 76f
11:50am  -   -   -  13 16 mph 1018.8mb 77f 74f
10:50am  -   -   -  11 13 mph 1019.3mb 77f 74f
9:50am  -   -   -  11 13 mph 1019.3mb 77f 76f
8:50am  -   -   -  13
mph
1019.3mb 77f 76f
7:50am  -   -   -  13
mph
1019.3mb - 76f